createdAt,value
2022-09-26T05:08:30.539Z,993.12
2022-09-26T05:09:34.127Z,993.12
2022-09-26T05:10:30.416Z,993.13
2022-09-26T05:11:31.064Z,993.13
2022-09-26T05:12:30.226Z,993.14
2022-09-26T05:13:30.712Z,993.14
2022-09-26T05:14:31.037Z,993.13
2022-09-26T05:15:30.708Z,993.13
2022-09-26T05:16:30.267Z,993.13
2022-09-26T05:17:30.031Z,993.14
2022-09-26T05:18:30.417Z,993.14
2022-09-26T05:19:29.931Z,993.12
2022-09-26T05:20:30.430Z,993.12
2022-09-26T05:21:30.014Z,993.10
2022-09-26T05:22:29.927Z,993.08
2022-09-26T05:23:30.180Z,993.06
2022-09-26T05:24:29.692Z,993.04
2022-09-26T05:26:48.650Z,992.98
2022-09-26T05:27:52.806Z,992.96
2022-09-26T05:28:49.718Z,992.95
2022-09-26T05:29:49.590Z,992.95
2022-09-26T05:30:56.356Z,992.95
2022-09-26T05:31:49.800Z,992.96
2022-09-26T05:32:49.753Z,992.95
2022-09-26T05:33:49.750Z,992.96
2022-09-26T05:34:49.364Z,992.97
2022-09-26T05:35:49.793Z,992.98
2022-09-26T05:36:51.327Z,992.99
2022-09-26T05:37:49.787Z,993.01
2022-09-26T05:38:49.716Z,993.01
2022-09-26T05:39:49.630Z,993.01
2022-09-26T05:40:49.731Z,992.99
2022-09-26T05:41:50.047Z,992.96
2022-09-26T05:42:49.680Z,992.97
2022-09-26T05:43:49.732Z,992.97
2022-09-26T05:44:49.444Z,992.97
2022-09-26T05:45:49.607Z,992.95
2022-09-26T05:46:49.807Z,992.93
2022-09-26T05:47:49.538Z,992.91
2022-09-26T05:48:49.709Z,992.91
